Time;durP1;ratioP1;P1;durP2;ratioP2;P2;SDS_P1;SDS_P2;PMS_P1;PMS_P2;Temp;Humidity;BMP_temperature;BMP_pressure;BME280_temperature;BME280_humidity;BME280_pressure;Samples;Min_cycle;Max_cycle;Signal;HPM_P1;HPM_P2
2023/04/15 00:00:25;;;;;;;;;;;8.50;73.20;;;;;;5035670;28;19909;-85
2023/04/15 00:02:51;;;;;;;;;;;8.50;73.40;;;;;;5035605;28;19913;-85
2023/04/15 00:05:17;;;;;;;;;;;8.40;73.50;;;;;;5031632;28;20370;-85
2023/04/15 00:07:42;;;;;;;;;;;8.40;72.90;;;;;;5032806;28;19931;-85
2023/04/15 00:10:08;;;;;;;;;;;8.50;72.20;;;;;;5034767;28;20068;-85
2023/04/15 00:12:33;;;;;;;;;;;8.50;72.20;;;;;;5041995;28;20374;-85
2023/04/15 00:14:59;;;;;;;;;;;8.50;72.60;;;;;;5052146;28;19909;-85
2023/04/15 00:17:24;;;;;;;;;;;8.40;72.80;;;;;;5046406;28;19909;-85
2023/04/15 00:19:50;;;;;;;;;;;8.50;72.40;;;;;;5033947;28;20347;-85
2023/04/15 00:22:16;;;;;;;;;;;8.50;72.80;;;;;;5042147;28;19923;-85
2023/04/15 00:24:41;;;;;;;;;;;8.50;72.90;;;;;;5056657;28;19932;-85
2023/04/15 00:27:07;;;;;;;;;;;8.50;73.00;;;;;;5047557;28;19909;-84
2023/04/15 00:29:32;;;;;;;;;;;8.40;73.10;;;;;;5042945;28;19977;-85
2023/04/15 00:31:58;;;;;;;;;;;8.30;73.50;;;;;;5044788;28;19932;-85
2023/04/15 00:34:23;;;;;;;;;;;8.30;73.70;;;;;;5042601;28;19940;-84
2023/04/15 00:36:50;;;;;;;;;;;8.20;73.60;;;;;;5044565;28;19913;-85
2023/04/15 00:39:15;;;;;;;;;;;8.10;74.60;;;;;;5052067;28;20477;-85
2023/04/15 00:41:42;;;;;;;;;;;8.20;74.40;;;;;;5037485;28;20200;-85
2023/04/15 00:44:08;;;;;;;;;;;8.20;74.80;;;;;;5030928;28;19910;-85
2023/04/15 00:46:38;;;;;;;;;;;8.20;74.80;;;;;;5050350;28;19987;-85
2023/04/15 00:49:04;;;;;;;;;;;8.20;74.50;;;;;;5049754;28;19945;-85
2023/04/15 00:51:32;;;;;;;;;;;8.20;74.10;;;;;;5039423;28;20008;-85
2023/04/15 00:54:02;;;;;;;;;;;8.20;74.30;;;;;;5030669;28;20640;-85
2023/04/15 00:56:28;;;;;;;;;;;8.20;74.30;;;;;;5030544;28;19915;-85
2023/04/15 00:58:53;;;;;;;;;;;8.10;74.30;;;;;;5038675;28;19972;-85
2023/04/15 01:01:23;;;;;;;;;;;8.00;74.80;;;;;;5049216;28;20434;-84
2023/04/15 01:03:49;;;;;;;;;;;8.00;75.80;;;;;;5046753;28;19925;-85
2023/04/15 01:06:16;;;;;;;;;;;8.00;76.10;;;;;;5063932;28;19920;-84
2023/04/15 01:08:41;;;;;;;;;;;7.90;75.70;;;;;;5036806;28;19917;-85
2023/04/15 01:11:08;;;;;;;;;;;7.90;76.30;;;;;;5031614;28;19909;-85
2023/04/15 01:13:35;;;;;;;;;;;8.00;75.60;;;;;;5049483;28;19916;-85
2023/04/15 01:16:01;;;;;;;;;;;7.90;75.40;;;;;;5037734;28;19909;-85
2023/04/15 01:18:27;;;;;;;;;;;7.90;76.20;;;;;;5050035;28;19920;-85
2023/04/15 01:20:53;;;;;;;;;;;7.80;76.20;;;;;;5052499;28;19909;-84
2023/04/15 01:23:20;;;;;;;;;;;7.80;76.90;;;;;;5053675;28;19920;-85
2023/04/15 01:25:46;;;;;;;;;;;7.80;76.70;;;;;;5048034;28;20282;-85
2023/04/15 01:28:12;;;;;;;;;;;7.70;77.10;;;;;;5053481;28;19909;-85
2023/04/15 01:30:37;;;;;;;;;;;7.70;76.80;;;;;;5054606;28;19958;-85
2023/04/15 01:33:03;;;;;;;;;;;7.60;76.80;;;;;;5053750;28;19913;-85
2023/04/15 01:35:28;;;;;;;;;;;7.60;76.90;;;;;;5050499;28;20007;-84
2023/04/15 01:37:57;;;;;;;;;;;7.60;77.10;;;;;;5058492;28;19912;-85
2023/04/15 01:40:23;;;;;;;;;;;7.60;77.00;;;;;;5060319;28;19962;-85
2023/04/15 01:42:49;;;;;;;;;;;7.60;76.90;;;;;;5044772;28;19988;-85
2023/04/15 01:45:14;;;;;;;;;;;7.60;77.00;;;;;;5034324;28;20336;-85
2023/04/15 01:47:40;;;;;;;;;;;7.60;76.90;;;;;;5035277;28;20374;-85
2023/04/15 01:50:05;;;;;;;;;;;7.60;76.90;;;;;;5036193;28;20007;-85
2023/04/15 01:52:31;;;;;;;;;;;7.60;76.90;;;;;;5035158;28;19921;-85
2023/04/15 01:54:56;;;;;;;;;;;7.50;77.30;;;;;;5034698;28;19960;-85
2023/04/15 01:57:22;;;;;;;;;;;7.50;77.90;;;;;;5034467;28;19945;-85
2023/04/15 01:59:47;;;;;;;;;;;7.60;78.00;;;;;;5049022;28;19916;-85
2023/04/15 02:02:12;;;;;;;;;;;7.60;77.60;;;;;;5044193;28;20409;-85
2023/04/15 02:04:38;;;;;;;;;;;7.60;77.40;;;;;;5051430;28;20027;-86
2023/04/15 02:07:03;;;;;;;;;;;7.60;77.50;;;;;;5043415;28;20373;-84
2023/04/15 02:09:29;;;;;;;;;;;7.50;77.80;;;;;;5047667;28;19923;-84
2023/04/15 02:11:56;;;;;;;;;;;7.60;77.30;;;;;;5054989;28;19958;-83
2023/04/15 02:14:21;;;;;;;;;;;7.60;77.00;;;;;;5054425;28;19913;-84
2023/04/15 02:16:47;;;;;;;;;;;7.60;77.00;;;;;;5053644;28;20310;-84
2023/04/15 02:19:12;;;;;;;;;;;7.50;77.40;;;;;;5039298;28;20020;-84
2023/04/15 02:21:38;;;;;;;;;;;7.40;77.80;;;;;;5061659;28;19908;-84
2023/04/15 02:24:04;;;;;;;;;;;7.40;77.80;;;;;;5059869;28;20397;-84
2023/04/15 02:26:31;;;;;;;;;;;7.40;78.10;;;;;;5056846;28;19920;-84
2023/04/15 02:28:57;;;;;;;;;;;7.40;77.80;;;;;;5041260;28;19909;-85
2023/04/15 02:31:23;;;;;;;;;;;7.40;78.10;;;;;;5049481;28;19920;-84
2023/04/15 02:33:48;;;;;;;;;;;7.40;77.90;;;;;;5051803;28;20293;-84
2023/04/15 02:36:14;;;;;;;;;;;7.30;77.80;;;;;;5049090;28;19927;-84
2023/04/15 02:38:41;;;;;;;;;;;7.30;77.80;;;;;;5052665;28;19967;-84
2023/04/15 02:41:08;;;;;;;;;;;7.30;78.00;;;;;;5056088;28;19909;-84
2023/04/15 02:43:33;;;;;;;;;;;7.20;78.50;;;;;;5047717;28;19913;-84
2023/04/15 02:45:59;;;;;;;;;;;7.20;78.50;;;;;;5052230;28;19913;-84
2023/04/15 02:48:24;;;;;;;;;;;7.20;78.30;;;;;;5056165;28;19909;-84
2023/04/15 02:50:50;;;;;;;;;;;7.30;78.20;;;;;;5055413;28;19916;-84
2023/04/15 02:53:16;;;;;;;;;;;7.20;78.40;;;;;;5051757;28;19954;-84
2023/04/15 02:55:41;;;;;;;;;;;7.20;78.80;;;;;;5052152;28;19977;-84
2023/04/15 02:58:07;;;;;;;;;;;7.20;78.90;;;;;;5045074;28;19919;-84
2023/04/15 03:00:32;;;;;;;;;;;7.10;78.60;;;;;;5043844;28;19963;-84
2023/04/15 03:03:02;;;;;;;;;;;7.10;79.00;;;;;;5049748;28;19953;-84
2023/04/15 03:05:28;;;;;;;;;;;7.10;79.30;;;;;;5051536;28;19913;-84
2023/04/15 03:07:53;;;;;;;;;;;7.00;79.40;;;;;;5046245;28;20011;-84
2023/04/15 03:10:19;;;;;;;;;;;6.90;79.40;;;;;;5047096;28;19913;-84
2023/04/15 03:12:45;;;;;;;;;;;7.00;79.60;;;;;;5049398;28;19999;-84
2023/04/15 03:15:11;;;;;;;;;;;6.90;79.40;;;;;;5052884;28;20003;-84
2023/04/15 03:17:36;;;;;;;;;;;6.90;79.70;;;;;;5053467;28;19908;-83
2023/04/15 03:20:05;;;;;;;;;;;7.00;79.30;;;;;;5053635;28;19920;-84
2023/04/15 03:22:31;;;;;;;;;;;7.00;79.10;;;;;;5039638;28;19924;-84
2023/04/15 03:24:56;;;;;;;;;;;7.00;79.00;;;;;;5044502;28;19916;-84
2023/04/15 03:27:22;;;;;;;;;;;7.00;79.00;;;;;;5045825;28;20367;-84
2023/04/15 03:29:47;;;;;;;;;;;6.90;79.70;;;;;;5055679;28;19908;-85
2023/04/15 03:32:14;;;;;;;;;;;6.90;79.40;;;;;;5053079;28;19912;-85
2023/04/15 03:34:39;;;;;;;;;;;6.90;79.70;;;;;;5040186;28;19967;-85
2023/04/15 03:37:05;;;;;;;;;;;6.80;79.60;;;;;;5048597;28;19909;-85
2023/04/15 03:39:31;;;;;;;;;;;6.80;79.50;;;;;;5039768;28;20122;-85
2023/04/15 03:41:58;;;;;;;;;;;6.80;79.70;;;;;;5049665;28;19920;-85
2023/04/15 03:44:23;;;;;;;;;;;6.80;79.80;;;;;;5057318;28;19919;-84
2023/04/15 03:46:49;;;;;;;;;;;6.70;80.10;;;;;;5043143;28;20434;-85
2023/04/15 03:49:15;;;;;;;;;;;6.70;80.10;;;;;;5039784;28;19913;-85
2023/04/15 03:51:40;;;;;;;;;;;6.70;79.70;;;;;;5037499;28;20004;-84
2023/04/15 03:54:05;;;;;;;;;;;6.60;79.90;;;;;;5036706;28;19959;-85
2023/04/15 03:56:31;;;;;;;;;;;6.50;80.50;;;;;;5047654;28;19924;-85
2023/04/15 03:58:56;;;;;;;;;;;6.60;80.40;;;;;;5047684;28;19909;-85
2023/04/15 04:01:23;;;;;;;;;;;6.50;80.60;;;;;;5046660;28;19912;-84
2023/04/15 04:03:48;;;;;;;;;;;6.50;80.50;;;;;;5055922;28;20051;-85
2023/04/15 04:06:14;;;;;;;;;;;6.50;81.00;;;;;;5055324;28;20397;-84
2023/04/15 04:08:40;;;;;;;;;;;6.40;81.20;;;;;;5055635;28;19920;-85
2023/04/15 04:11:05;;;;;;;;;;;6.40;80.90;;;;;;5045206;28;19913;-84
2023/04/15 04:13:31;;;;;;;;;;;6.30;81.20;;;;;;5050199;28;19967;-85
2023/04/15 04:15:56;;;;;;;;;;;6.30;81.10;;;;;;5052621;28;19963;-85
2023/04/15 04:18:22;;;;;;;;;;;6.20;81.60;;;;;;5054736;28;19921;-84
2023/04/15 04:20:47;;;;;;;;;;;6.30;81.40;;;;;;5050145;28;19920;-84
2023/04/15 04:23:12;;;;;;;;;;;6.20;81.90;;;;;;5054994;28;19920;-84
2023/04/15 04:25:38;;;;;;;;;;;6.20;81.50;;;;;;5058754;28;19916;-84
2023/04/15 04:28:03;;;;;;;;;;;6.20;81.70;;;;;;5051394;28;20004;-84
2023/04/15 04:30:29;;;;;;;;;;;6.20;81.60;;;;;;5055720;28;19987;-85
2023/04/15 04:32:54;;;;;;;;;;;6.20;81.70;;;;;;5052657;28;19909;-84
2023/04/15 04:35:20;;;;;;;;;;;6.10;81.90;;;;;;5057832;28;19968;-84
2023/04/15 04:37:46;;;;;;;;;;;6.10;82.30;;;;;;5064181;28;19897;-84
2023/04/15 04:40:12;;;;;;;;;;;6.20;82.50;;;;;;5063713;28;19910;-83
2023/04/15 04:42:37;;;;;;;;;;;6.10;82.50;;;;;;5036302;28;19917;-84
2023/04/15 04:45:03;;;;;;;;;;;6.20;82.60;;;;;;5045559;28;19912;-84
2023/04/15 04:47:29;;;;;;;;;;;6.30;82.40;;;;;;5047220;28;19984;-84
2023/04/15 04:49:54;;;;;;;;;;;6.20;82.40;;;;;;5055351;28;19913;-83
2023/04/15 04:52:20;;;;;;;;;;;6.20;82.10;;;;;;5063668;28;19917;-84
2023/04/15 04:54:46;;;;;;;;;;;6.20;82.30;;;;;;5050226;28;20321;-84
2023/04/15 04:57:12;;;;;;;;;;;6.20;82.50;;;;;;5054895;28;19951;-84
2023/04/15 04:59:38;;;;;;;;;;;6.20;82.30;;;;;;5048713;28;19999;-84
2023/04/15 05:02:03;;;;;;;;;;;6.20;82.40;;;;;;5047153;28;20086;-83
2023/04/15 05:04:30;;;;;;;;;;;6.20;82.60;;;;;;5052388;28;19913;-83
2023/04/15 05:06:56;;;;;;;;;;;6.20;82.40;;;;;;5052723;28;19913;-83
2023/04/15 05:09:21;;;;;;;;;;;6.30;82.40;;;;;;5046936;28;19931;-83
2023/04/15 05:11:47;;;;;;;;;;;6.30;82.30;;;;;;5053779;28;19908;-84
2023/04/15 05:14:12;;;;;;;;;;;6.20;82.50;;;;;;5053913;28;19909;-83
2023/04/15 05:16:38;;;;;;;;;;;6.30;82.80;;;;;;5054207;28;20003;-83
2023/04/15 05:19:03;;;;;;;;;;;6.40;82.60;;;;;;5046517;28;19987;-84
2023/04/15 05:21:30;;;;;;;;;;;6.30;82.40;;;;;;5053737;28;20016;-83
2023/04/15 05:23:55;;;;;;;;;;;6.30;82.60;;;;;;5045026;28;19975;-84
2023/04/15 05:26:21;;;;;;;;;;;6.40;82.50;;;;;;5034655;28;19909;-84
2023/04/15 05:28:46;;;;;;;;;;;6.40;82.40;;;;;;5033389;28;19968;-84
2023/04/15 05:31:12;;;;;;;;;;;6.30;82.50;;;;;;5043280;28;19919;-84
2023/04/15 05:33:37;;;;;;;;;;;6.40;82.30;;;;;;5049525;28;19916;-84
2023/04/15 05:36:03;;;;;;;;;;;6.40;82.50;;;;;;5033736;28;19909;-83
2023/04/15 05:38:28;;;;;;;;;;;6.40;82.50;;;;;;5054851;28;19912;-83
2023/04/15 05:40:54;;;;;;;;;;;6.40;82.50;;;;;;5056828;28;20297;-84
2023/04/15 05:43:19;;;;;;;;;;;6.30;82.40;;;;;;5054909;28;20453;-84
2023/04/15 05:45:45;;;;;;;;;;;6.50;82.40;;;;;;5042076;28;19909;-83
2023/04/15 05:48:10;;;;;;;;;;;6.40;82.60;;;;;;5033796;28;19916;-83
2023/04/15 05:50:36;;;;;;;;;;;6.50;82.10;;;;;;5044459;28;19915;-83
2023/04/15 05:53:01;;;;;;;;;;;6.50;82.70;;;;;;5047745;28;19923;-84
2023/04/15 05:55:27;;;;;;;;;;;6.60;82.20;;;;;;5056556;28;19913;-84
2023/04/15 05:57:52;;;;;;;;;;;6.60;82.20;;;;;;5057060;28;19916;-84
2023/04/15 06:00:18;;;;;;;;;;;6.70;82.20;;;;;;5058091;28;19909;-84
2023/04/15 06:02:43;;;;;;;;;;;6.70;82.30;;;;;;5053382;28;20008;-84
2023/04/15 06:05:10;;;;;;;;;;;6.80;82.00;;;;;;5060752;28;19943;-84
2023/04/15 06:07:36;;;;;;;;;;;6.80;81.80;;;;;;5060848;28;19918;-84
2023/04/15 06:10:02;;;;;;;;;;;6.70;81.90;;;;;;5060603;28;19916;-84
2023/04/15 06:12:27;;;;;;;;;;;6.80;82.10;;;;;;5055396;28;19913;-83
2023/04/15 06:14:53;;;;;;;;;;;6.90;81.60;;;;;;5062000;28;19970;-85
2023/04/15 06:17:18;;;;;;;;;;;6.80;81.50;;;;;;5040792;28;19920;-85
2023/04/15 06:19:44;;;;;;;;;;;7.00;81.80;;;;;;5039307;28;19966;-85
2023/04/15 06:22:09;;;;;;;;;;;7.00;81.30;;;;;;5051075;28;19916;-85
2023/04/15 06:24:35;;;;;;;;;;;6.90;81.40;;;;;;5055985;28;19912;-84
2023/04/15 06:27:02;;;;;;;;;;;7.00;81.70;;;;;;5052612;28;20259;-84
2023/04/15 06:29:27;;;;;;;;;;;7.10;81.60;;;;;;5035408;28;19915;-84
2023/04/15 06:31:53;;;;;;;;;;;7.30;81.30;;;;;;5052345;28;20445;-85
2023/04/15 06:34:18;;;;;;;;;;;7.30;81.00;;;;;;5055556;28;20381;-84
2023/04/15 06:36:44;;;;;;;;;;;7.40;80.90;;;;;;5049300;28;19916;-85
2023/04/15 06:39:09;;;;;;;;;;;7.30;80.50;;;;;;5039842;28;19959;-84
2023/04/15 06:41:35;;;;;;;;;;;7.30;81.10;;;;;;5050932;28;19970;-84
2023/04/15 06:44:00;;;;;;;;;;;7.30;81.20;;;;;;5048378;28;19923;-84
2023/04/15 06:46:26;;;;;;;;;;;7.40;81.20;;;;;;5055811;28;19913;-84
2023/04/15 06:48:52;;;;;;;;;;;7.50;80.80;;;;;;5051941;28;19921;-84
2023/04/15 06:51:18;;;;;;;;;;;7.50;80.90;;;;;;5053276;28;20016;-84
2023/04/15 06:53:43;;;;;;;;;;;7.50;81.00;;;;;;5048550;28;19952;-84
2023/04/15 06:56:09;;;;;;;;;;;7.50;81.00;;;;;;5057747;28;19922;-84
2023/04/15 06:58:35;;;;;;;;;;;7.60;81.10;;;;;;5052984;28;19929;-84
2023/04/15 07:01:00;;;;;;;;;;;7.60;81.10;;;;;;5054840;28;19912;-84
2023/04/15 07:03:26;;;;;;;;;;;7.80;81.30;;;;;;5044179;28;19913;-84
2023/04/15 07:05:52;;;;;;;;;;;7.90;80.70;;;;;;5038910;28;20378;-84
2023/04/15 07:08:18;;;;;;;;;;;7.80;80.90;;;;;;5036182;28;20374;-84
2023/04/15 07:10:45;;;;;;;;;;;7.70;81.30;;;;;;5044433;28;20410;-84
2023/04/15 07:13:10;;;;;;;;;;;7.80;81.30;;;;;;5060262;28;19920;-84
2023/04/15 07:15:36;;;;;;;;;;;8.00;81.50;;;;;;5055715;28;19909;-84
2023/04/15 07:18:01;;;;;;;;;;;8.10;80.80;;;;;;5058406;28;19916;-84
2023/04/15 07:20:27;;;;;;;;;;;8.10;81.30;;;;;;5060143;28;19913;-84
2023/04/15 07:22:52;;;;;;;;;;;8.20;80.80;;;;;;5064564;28;19956;-84
2023/04/15 07:25:18;;;;;;;;;;;8.40;80.90;;;;;;5061391;28;19913;-84
2023/04/15 07:27:43;;;;;;;;;;;8.60;80.60;;;;;;5045223;28;19916;-84
2023/04/15 07:30:09;;;;;;;;;;;8.60;79.80;;;;;;5044130;28;19923;-84
2023/04/15 07:32:35;;;;;;;;;;;8.70;80.10;;;;;;5056139;28;19984;-84
2023/04/15 07:35:02;;;;;;;;;;;8.70;80.30;;;;;;5051077;28;19967;-83
2023/04/15 07:37:28;;;;;;;;;;;8.80;79.40;;;;;;5052212;28;19931;-84
2023/04/15 07:39:54;;;;;;;;;;;8.80;78.90;;;;;;5051230;28;20015;-83
2023/04/15 07:42:19;;;;;;;;;;;8.70;79.20;;;;;;5047264;28;19944;-83
2023/04/15 07:44:45;;;;;;;;;;;8.70;79.40;;;;;;5043890;28;20370;-84
2023/04/15 07:47:11;;;;;;;;;;;8.80;80.10;;;;;;5047930;28;19963;-84
2023/04/15 07:49:36;;;;;;;;;;;9.10;79.20;;;;;;5052709;28;19995;-84
2023/04/15 07:52:02;;;;;;;;;;;9.10;78.90;;;;;;5052793;28;19951;-83
2023/04/15 07:54:28;;;;;;;;;;;9.20;77.70;;;;;;5052505;28;20339;-84
2023/04/15 07:56:53;;;;;;;;;;;9.20;77.10;;;;;;5053871;28;19955;-85
2023/04/15 07:59:19;;;;;;;;;;;9.10;77.40;;;;;;5053583;28;19913;-84
2023/04/15 08:01:44;;;;;;;;;;;9.10;77.10;;;;;;5056902;28;19917;-84
2023/04/15 08:04:09;;;;;;;;;;;9.30;77.00;;;;;;5049502;28;20367;-83
2023/04/15 08:06:38;;;;;;;;;;;9.30;76.30;;;;;;5036293;28;19909;-84
2023/04/15 08:09:04;;;;;;;;;;;9.20;76.40;;;;;;5035388;28;19976;-84
2023/04/15 08:11:30;;;;;;;;;;;9.40;77.30;;;;;;5034321;28;19917;-83
2023/04/15 08:13:55;;;;;;;;;;;9.50;76.10;;;;;;5032342;28;19909;-84
2023/04/15 08:16:22;;;;;;;;;;;9.60;75.00;;;;;;5034934;28;19921;-83
2023/04/15 08:18:48;;;;;;;;;;;9.50;75.10;;;;;;5033798;28;19909;-84
2023/04/15 08:21:13;;;;;;;;;;;9.30;75.10;;;;;;5050536;28;19916;-84
2023/04/15 08:23:39;;;;;;;;;;;9.40;75.50;;;;;;5046954;28;19917;-83
2023/04/15 08:26:05;;;;;;;;;;;9.40;75.90;;;;;;5054084;28;19971;-84
2023/04/15 08:28:30;;;;;;;;;;;9.50;75.90;;;;;;5054655;28;19919;-84
2023/04/15 08:30:56;;;;;;;;;;;9.50;75.80;;;;;;5053202;28;19936;-84
2023/04/15 08:33:21;;;;;;;;;;;9.60;75.90;;;;;;5034569;28;20003;-84
2023/04/15 08:35:47;;;;;;;;;;;9.60;75.60;;;;;;5043852;28;19909;-84
2023/04/15 08:38:12;;;;;;;;;;;9.80;74.80;;;;;;5051641;28;19943;-83
2023/04/15 08:40:42;;;;;;;;;;;9.80;75.10;;;;;;5056295;28;20044;-83
2023/04/15 08:43:23;;;;;;;;;;;9.80;74.90;;;;;;5056128;28;19912;-84
2023/04/15 08:45:50;;;;;;;;;;;10.00;74.20;;;;;;5042084;28;19913;-83
2023/04/15 08:48:16;;;;;;;;;;;10.00;74.30;;;;;;5038304;28;20035;-83
2023/04/15 08:50:41;;;;;;;;;;;10.00;74.30;;;;;;5036280;28;19956;-84
2023/04/15 08:53:07;;;;;;;;;;;10.00;74.20;;;;;;5040257;28;20581;-84
2023/04/15 08:55:35;;;;;;;;;;;10.00;73.80;;;;;;5054444;28;21410;-84
2023/04/15 08:58:01;;;;;;;;;;;10.00;74.50;;;;;;5040044;28;19939;-83
2023/04/15 09:00:31;;;;;;;;;;;9.90;74.20;;;;;;5038773;28;19936;-84
2023/04/15 09:02:57;;;;;;;;;;;9.90;74.50;;;;;;5043867;28;19916;-84
2023/04/15 09:05:23;;;;;;;;;;;10.00;74.30;;;;;;5054582;28;19913;-84
2023/04/15 09:07:49;;;;;;;;;;;10.10;73.40;;;;;;5048169;28;19916;-84
2023/04/15 09:10:15;;;;;;;;;;;10.10;74.10;;;;;;5047882;28;20039;-84
2023/04/15 09:12:40;;;;;;;;;;;9.90;74.20;;;;;;5054863;28;20018;-85
2023/04/15 09:15:08;;;;;;;;;;;9.70;74.90;;;;;;5052659;28;19966;-84
2023/04/15 09:17:33;;;;;;;;;;;9.60;75.20;;;;;;5046909;28;19917;-84
2023/04/15 09:20:09;;;;;;;;;;;9.60;76.10;;;;;;5042530;28;19920;-84
2023/04/15 09:22:36;;;;;;;;;;;9.60;76.30;;;;;;5045684;28;19948;-84
2023/04/15 09:25:01;;;;;;;;;;;9.60;76.70;;;;;;5054936;28;19917;-84
2023/04/15 09:27:27;;;;;;;;;;;9.70;76.80;;;;;;5057738;28;19959;-84
2023/04/15 09:29:52;;;;;;;;;;;9.90;75.80;;;;;;5055423;28;19917;-84
2023/04/15 09:32:20;;;;;;;;;;;10.00;75.00;;;;;;5053394;28;19920;-84
2023/04/15 09:34:45;;;;;;;;;;;9.90;75.90;;;;;;5039993;28;20409;-84
2023/04/15 09:37:12;;;;;;;;;;;9.90;75.90;;;;;;5057287;28;19923;-83
2023/04/15 09:39:48;;;;;;;;;;;10.10;75.60;;;;;;5047521;28;19979;-84
2023/04/15 09:42:14;;;;;;;;;;;10.20;75.30;;;;;;5045143;28;21894;-84
2023/04/15 09:44:40;;;;;;;;;;;10.00;75.30;;;;;;5053144;28;20047;-84
2023/04/15 09:47:05;;;;;;;;;;;10.10;75.30;;;;;;5056149;28;19979;-83
2023/04/15 09:49:31;;;;;;;;;;;10.10;75.80;;;;;;5055815;28;19943;-84
2023/04/15 09:51:58;;;;;;;;;;;10.40;75.10;;;;;;5045416;28;20445;-83
2023/04/15 09:54:24;;;;;;;;;;;10.20;75.20;;;;;;5047136;28;19963;-84
2023/04/15 09:56:49;;;;;;;;;;;10.50;74.50;;;;;;5046348;28;20335;-83
2023/04/15 09:59:15;;;;;;;;;;;10.40;74.30;;;;;;5053185;28;19921;-84
2023/04/15 10:01:41;;;;;;;;;;;10.30;75.20;;;;;;5063896;28;20362;-85
2023/04/15 10:04:07;;;;;;;;;;;10.30;75.30;;;;;;5052404;28;19920;-83
2023/04/15 10:06:33;;;;;;;;;;;10.20;75.70;;;;;;5050819;28;19967;-84
2023/04/15 10:08:59;;;;;;;;;;;10.40;74.80;;;;;;5053560;28;19947;-83
2023/04/15 10:11:28;;;;;;;;;;;10.30;74.90;;;;;;5056123;28;20011;-84
2023/04/15 10:13:55;;;;;;;;;;;10.20;75.70;;;;;;5058538;28;19912;-83
2023/04/15 10:16:21;;;;;;;;;;;10.30;75.50;;;;;;5046188;28;19913;-85
2023/04/15 10:18:55;;;;;;;;;;;10.30;74.90;;;;;;5053017;28;20385;-84
2023/04/15 10:21:22;;;;;;;;;;;10.10;75.80;;;;;;5060438;28;20416;-85
2023/04/15 10:23:48;;;;;;;;;;;10.10;76.00;;;;;;5054256;28;19996;-83
2023/04/15 10:26:14;;;;;;;;;;;10.10;76.10;;;;;;5049069;28;20505;-84
2023/04/15 10:28:40;;;;;;;;;;;10.20;75.70;;;;;;5048354;28;20528;-86
2023/04/15 10:31:06;;;;;;;;;;;10.10;76.20;;;;;;5047268;28;19913;-84
2023/04/15 10:33:32;;;;;;;;;;;10.20;76.00;;;;;;5046320;28;19917;-84
2023/04/15 10:35:58;;;;;;;;;;;10.30;75.70;;;;;;5053139;28;19952;-83
2023/04/15 10:38:34;;;;;;;;;;;10.30;75.70;;;;;;5053649;28;19924;-84
2023/04/15 10:41:15;;;;;;;;;;;10.10;76.30;;;;;;5050926;28;19909;-84
2023/04/15 10:43:45;;;;;;;;;;;10.10;76.30;;;;;;5039595;28;19916;-84
2023/04/15 10:46:10;;;;;;;;;;;10.00;76.80;;;;;;5048497;28;19909;-84
2023/04/15 10:48:36;;;;;;;;;;;10.00;77.10;;;;;;5058840;28;20013;-84
2023/04/15 10:51:03;;;;;;;;;;;10.10;76.70;;;;;;5057275;28;19920;-84
2023/04/15 10:53:30;;;;;;;;;;;10.10;76.40;;;;;;5051029;28;19917;-84
2023/04/15 10:55:56;;;;;;;;;;;10.10;76.70;;;;;;5056684;28;19908;-84
2023/04/15 10:58:23;;;;;;;;;;;10.30;76.50;;;;;;5061391;28;20340;-84
2023/04/15 11:00:52;;;;;;;;;;;10.30;75.90;;;;;;5059400;28;19920;-84
2023/04/15 11:03:35;;;;;;;;;;;10.00;76.50;;;;;;5084150;28;19920;-84
2023/04/15 11:06:00;;;;;;;;;;;10.00;77.40;;;;;;5060543;28;19958;-84
2023/04/15 11:08:52;;;;;;;;;;;10.00;77.00;;;;;;5058886;28;19980;-84
2023/04/15 11:11:17;;;;;;;;;;;10.00;77.60;;;;;;5058323;28;19913;-84
2023/04/15 11:13:47;;;;;;;;;;;10.00;77.30;;;;;;5048086;28;19939;-85
2023/04/15 11:16:12;;;;;;;;;;;10.00;77.30;;;;;;5045944;28;20019;-85
2023/04/15 11:18:38;;;;;;;;;;;10.00;77.00;;;;;;5060745;28;19936;-85
2023/04/15 11:21:04;;;;;;;;;;;10.10;76.30;;;;;;5057079;28;19921;-86
2023/04/15 11:23:31;;;;;;;;;;;10.10;76.20;;;;;;5051355;28;19921;-85
2023/04/15 11:25:58;;;;;;;;;;;10.10;76.90;;;;;;5058319;28;19913;-85
2023/04/15 11:28:25;;;;;;;;;;;10.10;76.90;;;;;;5043344;28;20172;-84
2023/04/15 11:30:50;;;;;;;;;;;10.10;76.40;;;;;;5051954;28;19913;-85
2023/04/15 11:33:16;;;;;;;;;;;10.00;76.60;;;;;;5053906;28;19921;-85
2023/04/15 11:35:42;;;;;;;;;;;10.00;76.80;;;;;;5039886;28;19910;-84
2023/04/15 11:38:10;;;;;;;;;;;10.00;77.10;;;;;;5052475;28;19912;-85
2023/04/15 11:40:36;;;;;;;;;;;10.00;76.80;;;;;;5050771;28;19917;-85
2023/04/15 11:43:12;;;;;;;;;;;9.90;77.40;;;;;;5055153;28;20267;-85
2023/04/15 11:45:46;;;;;;;;;;;10.10;76.80;;;;;;5039797;28;19917;-85
2023/04/15 11:48:12;;;;;;;;;;;10.00;76.90;;;;;;5047960;28;20286;-85
2023/04/15 11:50:40;;;;;;;;;;;10.10;76.10;;;;;;5055078;28;19913;-84
2023/04/15 11:53:10;;;;;;;;;;;10.20;76.10;;;;;;5052852;28;20341;-84
2023/04/15 11:55:43;;;;;;;;;;;10.20;76.30;;;;;;5056580;28;19912;-85
2023/04/15 11:58:16;;;;;;;;;;;10.10;76.70;;;;;;5049715;28;19966;-85
2023/04/15 12:00:48;;;;;;;;;;;10.20;76.60;;;;;;5047264;28;19909;-84
2023/04/15 12:03:24;;;;;;;;;;;10.30;76.50;;;;;;5034088;28;19913;-85
2023/04/15 12:06:05;;;;;;;;;;;10.30;76.00;;;;;;5046895;28;19917;-85
2023/04/15 12:08:49;;;;;;;;;;;10.30;76.70;;;;;;5039915;28;19916;-84
2023/04/15 12:11:15;;;;;;;;;;;10.50;76.30;;;;;;5045697;28;19913;-84
2023/04/15 12:13:48;;;;;;;;;;;10.50;75.60;;;;;;5047146;28;20425;-85
2023/04/15 12:16:20;;;;;;;;;;;10.60;75.60;;;;;;5050981;28;19962;-85
2023/04/15 12:18:46;;;;;;;;;;;10.60;75.50;;;;;;5043401;28;19927;-84
2023/04/15 12:21:11;;;;;;;;;;;10.50;75.80;;;;;;5047863;28;20358;-84
2023/04/15 12:24:03;;;;;;;;;;;10.60;75.20;;;;;;5050700;28;19927;-85
2023/04/15 12:26:30;;;;;;;;;;;10.60;75.40;;;;;;5040491;28;19909;-84
2023/04/15 12:28:59;;;;;;;;;;;10.60;75.80;;;;;;5047384;28;19923;-83
2023/04/15 12:31:25;;;;;;;;;;;10.60;76.40;;;;;;5053584;28;19941;-84
2023/04/15 12:33:50;;;;;;;;;;;10.60;75.90;;;;;;5047998;28;19916;-83
2023/04/15 12:36:16;;;;;;;;;;;10.70;75.10;;;;;;5052685;28;19914;-85
2023/04/15 12:38:41;;;;;;;;;;;10.70;75.50;;;;;;5043661;28;19913;-84
2023/04/15 12:41:07;;;;;;;;;;;10.60;75.40;;;;;;5049645;28;19913;-84
2023/04/15 12:43:32;;;;;;;;;;;10.60;75.20;;;;;;5045603;28;19963;-83
2023/04/15 12:45:58;;;;;;;;;;;10.60;75.40;;;;;;5043248;28;20312;-84
2023/04/15 12:48:23;;;;;;;;;;;10.50;76.10;;;;;;5057362;28;19917;-84
2023/04/15 12:50:49;;;;;;;;;;;10.50;76.30;;;;;;5047477;28;19912;-83
2023/04/15 12:53:14;;;;;;;;;;;10.50;76.10;;;;;;5039126;28;19932;-83
2023/04/15 12:55:40;;;;;;;;;;;10.50;75.90;;;;;;5044537;28;19913;-85
2023/04/15 12:58:06;;;;;;;;;;;10.50;76.00;;;;;;5041381;28;19920;-84
2023/04/15 13:00:32;;;;;;;;;;;10.40;77.80;;;;;;5045226;28;19913;-86
2023/04/15 13:02:58;;;;;;;;;;;10.40;76.20;;;;;;5038072;28;19917;-87
2023/04/15 13:05:23;;;;;;;;;;;10.50;76.10;;;;;;5043511;28;19924;-87
2023/04/15 13:07:49;;;;;;;;;;;10.40;76.90;;;;;;5048752;28;19912;-85
2023/04/15 13:10:15;;;;;;;;;;;10.50;75.90;;;;;;5055214;28;21023;-85
2023/04/15 13:12:40;;;;;;;;;;;10.40;76.20;;;;;;5051187;28;19966;-85
2023/04/15 13:15:06;;;;;;;;;;;10.40;75.90;;;;;;5041345;28;19920;-85
2023/04/15 13:17:31;;;;;;;;;;;10.30;76.90;;;;;;5054683;28;19913;-85
2023/04/15 13:19:57;;;;;;;;;;;10.40;77.30;;;;;;5056222;28;19987;-85
2023/04/15 13:22:22;;;;;;;;;;;10.50;77.50;;;;;;5052685;28;20062;-85
2023/04/15 13:24:48;;;;;;;;;;;10.60;76.40;;;;;;5055712;28;20378;-84
2023/04/15 13:27:13;;;;;;;;;;;10.60;75.60;;;;;;5059534;28;19979;-84
2023/04/15 13:29:39;;;;;;;;;;;10.60;76.80;;;;;;5057924;28;19912;-85
2023/04/15 13:32:05;;;;;;;;;;;10.60;77.00;;;;;;5057752;28;19939;-84
2023/04/15 13:34:30;;;;;;;;;;;10.60;76.50;;;;;;5055977;28;20011;-84
2023/04/15 13:36:56;;;;;;;;;;;10.60;76.00;;;;;;5056493;28;19913;-84
2023/04/15 13:39:22;;;;;;;;;;;10.60;76.30;;;;;;5055835;28;19909;-85
2023/04/15 13:41:47;;;;;;;;;;;10.50;76.10;;;;;;5048177;28;19913;-85
2023/04/15 13:44:13;;;;;;;;;;;10.40;77.20;;;;;;5047551;28;20477;-85
2023/04/15 13:46:40;;;;;;;;;;;10.40;76.90;;;;;;5051076;28;20467;-84
2023/04/15 13:49:06;;;;;;;;;;;10.40;76.90;;;;;;5050181;28;19932;-85
2023/04/15 13:51:31;;;;;;;;;;;10.40;76.90;;;;;;5053257;28;19913;-85
2023/04/15 13:53:57;;;;;;;;;;;10.50;76.30;;;;;;5047124;28;19924;-85
2023/04/15 13:56:22;;;;;;;;;;;10.40;76.50;;;;;;5054177;28;19999;-85
2023/04/15 13:58:48;;;;;;;;;;;10.40;76.90;;;;;;5051291;28;20387;-84
2023/04/15 14:01:13;;;;;;;;;;;10.40;77.10;;;;;;5061432;28;19952;-84
2023/04/15 14:03:39;;;;;;;;;;;10.50;76.50;;;;;;5049748;28;19928;-83
2023/04/15 14:06:05;;;;;;;;;;;10.40;76.70;;;;;;5051008;28;19917;-84
2023/04/15 14:08:30;;;;;;;;;;;10.50;76.40;;;;;;5051717;28;19919;-85
2023/04/15 14:10:56;;;;;;;;;;;10.40;77.10;;;;;;5053404;28;19961;-85
2023/04/15 14:13:22;;;;;;;;;;;10.40;77.20;;;;;;5054829;28;19921;-85
2023/04/15 14:15:47;;;;;;;;;;;10.40;78.40;;;;;;5050261;28;19913;-85
2023/04/15 14:18:13;;;;;;;;;;;10.50;77.50;;;;;;5055316;28;20063;-85
2023/04/15 14:20:38;;;;;;;;;;;10.50;78.50;;;;;;5040406;28;19987;-85